Time;durP1;ratioP1;P1;durP2;ratioP2;P2;SDS_P1;SDS_P2;PMS_P1;PMS_P2;Temp;Humidity;BMP_temperature;BMP_pressure;BME280_temperature;BME280_humidity;BME280_pressure;Samples;Min_cycle;Max_cycle;Signal;HPM_P1;HPM_P2
2022/09/22 00:01:56;;;;;;;3.15;1.50;;;11.30;99.90;;;;;;5045246;28;20021;-35
2022/09/22 00:04:21;;;;;;;4.38;2.45;;;11.30;99.90;;;;;;5043825;28;20029;-35
2022/09/22 00:06:50;;;;;;;2.53;1.67;;;11.30;99.90;;;;;;5044443;28;20179;-35
2022/09/22 00:09:18;;;;;;;4.95;1.92;;;11.30;99.90;;;;;;5044633;28;20056;-35
2022/09/22 00:11:47;;;;;;;6.05;2.33;;;11.30;99.90;;;;;;5044973;28;20212;-34
2022/09/22 00:14:16;;;;;;;3.83;1.98;;;11.20;99.90;;;;;;5044120;28;20025;-36
2022/09/22 00:16:49;;;;;;;4.15;2.20;;;11.20;99.90;;;;;;5045523;28;20035;-34
2022/09/22 00:19:23;;;;;;;3.90;2.30;;;11.20;99.90;;;;;;5043913;28;20033;-35
2022/09/22 00:21:49;;;;;;;3.72;2.20;;;11.20;99.90;;;;;;5045764;28;20082;-37
2022/09/22 00:24:16;;;;;;;3.53;1.70;;;11.10;99.90;;;;;;5044067;28;20420;-35
2022/09/22 00:26:42;;;;;;;3.58;2.22;;;11.10;99.90;;;;;;5044632;28;20048;-36
2022/09/22 00:29:08;;;;;;;3.75;2.22;;;11.10;99.90;;;;;;5044095;28;20025;-34
2022/09/22 00:31:36;;;;;;;4.20;1.70;;;11.10;99.90;;;;;;5044689;28;20025;-36
2022/09/22 00:34:02;;;;;;;5.72;2.00;;;11.00;99.90;;;;;;5044272;28;20025;-35
2022/09/22 00:36:28;;;;;;;3.72;1.92;;;11.00;99.90;;;;;;5044270;28;20028;-35
2022/09/22 00:38:55;;;;;;;3.90;1.90;;;11.00;99.90;;;;;;5044936;28;20029;-35
2022/09/22 00:41:25;;;;;;;4.07;1.70;;;11.00;99.90;;;;;;5043920;28;20428;-34
2022/09/22 00:44:25;;;;;;;2.55;1.85;;;11.00;99.90;;;;;;5044152;28;20424;-34
2022/09/22 00:46:59;;;;;;;6.53;2.00;;;10.90;99.90;;;;;;5043530;28;20021;-35
2022/09/22 00:49:52;;;;;;;3.63;2.03;;;10.90;99.90;;;;;;5044375;28;20238;-36
2022/09/22 00:52:30;;;;;;;3.43;1.90;;;10.90;99.90;;;;;;5033767;28;20084;-36
2022/09/22 00:55:00;;;;;;;3.78;2.10;;;10.90;99.90;;;;;;5044060;28;20052;-35
2022/09/22 00:57:32;;;;;;;4.97;1.83;;;10.90;99.90;;;;;;5044047;28;20025;-33
2022/09/22 00:59:58;;;;;;;4.70;2.00;;;10.80;99.90;;;;;;5044886;28;20045;-35
2022/09/22 01:02:24;;;;;;;2.85;1.80;;;10.80;99.90;;;;;;5043582;28;20035;-35
2022/09/22 01:04:51;;;;;;;2.10;1.90;;;10.80;99.90;;;;;;5044343;28;20048;-34
2022/09/22 01:07:20;;;;;;;4.78;2.08;;;10.80;99.90;;;;;;5043942;28;20488;-36
2022/09/22 01:09:46;;;;;;;2.55;2.10;;;10.70;99.90;;;;;;5043316;28;20032;-36
2022/09/22 01:12:11;;;;;;;3.85;2.20;;;10.70;99.90;;;;;;5043995;28;20029;-37
2022/09/22 01:14:40;;;;;;;3.95;1.90;;;10.70;99.90;;;;;;5044674;28;20528;-35
2022/09/22 01:17:17;;;;;;;3.78;1.98;;;10.70;99.90;;;;;;5047396;28;20484;-35
2022/09/22 01:20:22;;;;;;;2.85;2.55;;;10.70;99.90;;;;;;5048018;28;20024;-36
2022/09/22 01:23:25;;;;;;;4.20;2.22;;;10.70;99.90;;;;;;5040981;28;20037;-35
2022/09/22 01:25:56;;;;;;;;;;;10.60;99.90;;;;;;5048350;28;20504;-35
2022/09/22 01:28:50;;;;;;;2.30;2.10;;;10.60;99.90;;;;;;5047142;28;19916;-35
2022/09/22 01:31:22;;;;;;;4.32;2.13;;;10.50;99.90;;;;;;5047196;28;20032;-34
2022/09/22 01:34:09;;;;;;;4.85;2.40;;;10.50;99.90;;;;;;5048024;28;20032;-35
2022/09/22 01:36:45;;;;;;;3.92;2.50;;;10.50;99.90;;;;;;5046500;28;20037;-35
2022/09/22 01:39:20;;;;;;;3.72;2.72;;;10.50;99.90;;;;;;5047825;28;20029;-33
2022/09/22 01:41:58;;;;;;;4.78;2.70;;;10.50;99.90;;;;;;5048279;28;20020;-35
2022/09/22 01:44:30;;;;;;;4.72;3.00;;;10.50;99.90;;;;;;5026706;28;20444;-36
2022/09/22 01:47:15;;;;;;;5.28;3.10;;;10.50;99.90;;;;;;5043346;28;20497;-36
2022/09/22 01:49:48;;;;;;;5.35;3.08;;;10.40;99.90;;;;;;5028407;28;20026;-35
2022/09/22 01:52:21;;;;;;;5.15;3.13;;;10.40;99.90;;;;;;5043224;28;20041;-36
2022/09/22 01:55:01;;;;;;;6.32;3.35;;;10.40;99.90;;;;;;5028320;28;20520;-35
2022/09/22 01:57:43;;;;;;;5.82;3.60;;;10.40;99.90;;;;;;5043515;28;20029;-35
2022/09/22 02:00:10;;;;;;;7.80;3.40;;;10.40;99.90;;;;;;5027638;28;20139;-36
2022/09/22 02:03:06;;;;;;;4.60;3.72;;;10.40;99.90;;;;;;5044141;28;20275;-35
2022/09/22 02:05:34;;;;;;;4.95;3.47;;;10.40;99.90;;;;;;5027017;28;20075;-35
2022/09/22 02:08:03;;;;;;;4.65;3.30;;;10.30;99.90;;;;;;5045601;28;20120;-35
2022/09/22 02:10:34;;;;;;;5.47;3.33;;;10.30;99.90;;;;;;5046843;28;20028;-35
2022/09/22 02:13:00;;;;;;;5.40;3.33;;;10.30;99.90;;;;;;5046940;28;20033;-35
2022/09/22 02:18:18;;;;;;;3.80;3.20;;;10.30;99.90;;;;;;5045988;28;20090;-35
2022/09/22 02:20:44;;;;;;;4.20;3.00;;;10.30;99.90;;;;;;5046879;28;20036;-35
2022/09/22 02:23:09;;;;;;;4.30;2.65;;;10.20;99.90;;;;;;5046855;28;20029;-34
2022/09/22 02:25:37;;;;;;;4.10;3.10;;;10.20;99.90;;;;;;5046991;28;20035;-35
2022/09/22 02:28:03;;;;;;;3.65;2.72;;;10.20;99.90;;;;;;5047056;28;20021;-34
2022/09/22 02:30:30;;;;;;;3.38;2.20;;;10.20;99.90;;;;;;5046877;28;20029;-36
2022/09/22 02:32:57;;;;;;;3.95;2.20;;;10.20;99.90;;;;;;5046144;28;20025;-34
2022/09/22 02:35:28;;;;;;;3.15;2.50;;;10.20;99.90;;;;;;5046561;28;20029;-36
2022/09/22 02:38:18;;;;;;;3.92;2.10;;;10.20;99.90;;;;;;5047251;28;20021;-34
2022/09/22 02:40:51;;;;;;;3.45;2.53;;;10.20;99.90;;;;;;5046034;28;20383;-34
2022/09/22 02:43:29;;;;;;;2.53;2.30;;;10.20;99.90;;;;;;5045881;28;20061;-34
2022/09/22 02:46:10;;;;;;;4.28;2.08;;;10.10;99.90;;;;;;5046776;28;20040;-34
2022/09/22 02:48:46;;;;;;;2.78;2.00;;;10.10;99.90;;;;;;5046653;28;20079;-34
2022/09/22 02:51:13;;;;;;;4.43;2.22;;;10.10;99.90;;;;;;5046069;28;20435;-35
2022/09/22 02:53:39;;;;;;;5.03;2.42;;;10.10;99.90;;;;;;5045574;28;20017;-37
2022/09/22 02:56:08;;;;;;;2.40;2.00;;;10.00;99.90;;;;;;5046679;28;20332;-35
2022/09/22 02:58:33;;;;;;;4.55;2.22;;;10.00;99.90;;;;;;5046332;28;20203;-35
2022/09/22 03:00:59;;;;;;;4.32;2.83;;;10.00;99.90;;;;;;5046269;28;20127;-36
2022/09/22 03:03:24;;;;;;;3.45;2.30;;;9.90;99.90;;;;;;5045840;28;20068;-35
2022/09/22 03:05:50;;;;;;;4.30;2.20;;;10.00;99.90;;;;;;5046593;28;20104;-35
2022/09/22 03:08:18;;;;;;;3.17;2.10;;;9.90;99.90;;;;;;5044963;28;20428;-34
2022/09/22 03:10:44;;;;;;;3.03;2.15;;;9.90;99.90;;;;;;5046510;28;20291;-35
2022/09/22 03:13:09;;;;;;;3.38;1.83;;;9.90;99.90;;;;;;5045806;28;20025;-35
2022/09/22 03:15:35;;;;;;;4.82;2.72;;;9.90;99.90;;;;;;5045619;28;20403;-34
2022/09/22 03:18:00;;;;;;;3.92;2.10;;;9.90;99.90;;;;;;5046150;28;20036;-35
2022/09/22 03:20:26;;;;;;;3.80;2.05;;;9.90;99.90;;;;;;5044855;28;20025;-35
2022/09/22 03:22:51;;;;;;;3.30;2.00;;;9.90;99.90;;;;;;5045279;28;20028;-34
2022/09/22 03:25:17;;;;;;;3.75;2.05;;;9.90;99.90;;;;;;5045398;28;20462;-35
2022/09/22 03:27:43;;;;;;;2.25;2.05;;;9.80;99.90;;;;;;5045816;28;20394;-35
2022/09/22 03:30:09;;;;;;;3.75;2.10;;;9.90;99.90;;;;;;5044606;28;20308;-34
2022/09/22 03:32:35;;;;;;;4.88;2.30;;;9.80;99.90;;;;;;5045398;28;20028;-34
2022/09/22 03:35:01;;;;;;;5.22;2.20;;;9.80;99.90;;;;;;5045586;28;20464;-35
2022/09/22 03:37:27;;;;;;;4.05;2.65;;;9.80;99.90;;;;;;5044000;28;20070;-37
2022/09/22 03:39:52;;;;;;;3.00;2.70;;;9.80;99.90;;;;;;5045478;28;20109;-36
2022/09/22 03:42:18;;;;;;;3.63;2.30;;;9.80;99.90;;;;;;5045052;28;20743;-34
2022/09/22 03:44:44;;;;;;;4.72;2.25;;;9.80;99.90;;;;;;5044437;28;20106;-36
2022/09/22 03:47:09;;;;;;;3.25;2.40;;;9.70;99.90;;;;;;5045191;28;20126;-36
2022/09/22 03:49:35;;;;;;;2.75;2.40;;;9.70;99.90;;;;;;5045155;28;20029;-36
2022/09/22 03:52:01;;;;;;;3.30;2.35;;;9.70;99.90;;;;;;5046131;28;20108;-35
2022/09/22 03:54:26;;;;;;;3.67;2.70;;;9.70;99.90;;;;;;5045277;28;20037;-34
2022/09/22 03:56:52;;;;;;;4.35;2.63;;;9.70;99.90;;;;;;5045032;28;20052;-35
2022/09/22 03:59:17;;;;;;;3.95;2.70;;;9.70;99.90;;;;;;5045527;28;20083;-35
2022/09/22 04:01:43;;;;;;;5.75;2.90;;;9.60;99.90;;;;;;5045527;28;20063;-36
2022/09/22 04:04:09;;;;;;;4.53;3.08;;;9.60;99.90;;;;;;5044261;28;20086;-36
2022/09/22 04:06:36;;;;;;;5.25;3.25;;;9.60;99.90;;;;;;5044890;28;20032;-37
2022/09/22 04:09:05;;;;;;;5.47;2.90;;;9.60;99.90;;;;;;5045010;28;20033;-37
2022/09/22 04:11:34;;;;;;;4.25;3.10;;;9.60;99.90;;;;;;5044107;28;20454;-37
2022/09/22 04:14:00;;;;;;;4.93;3.50;;;9.50;99.90;;;;;;5045465;28;20040;-36
2022/09/22 04:16:27;;;;;;;4.53;3.00;;;9.60;99.90;;;;;;5044343;28;20021;-35
2022/09/22 04:18:56;;;;;;;5.18;3.10;;;9.50;99.90;;;;;;5044618;28;20113;-34
2022/09/22 04:21:21;;;;;;;6.85;3.55;;;9.50;99.90;;;;;;5043967;28;20143;-38
2022/09/22 04:23:47;;;;;;;5.95;3.33;;;9.50;99.90;;;;;;5045552;28;20120;-34
2022/09/22 04:26:13;;;;;;;4.68;3.15;;;9.50;99.90;;;;;;5043725;28;20025;-35
2022/09/22 04:28:38;;;;;;;5.30;3.50;;;9.40;99.90;;;;;;5045338;28;20017;-34
2022/09/22 04:31:04;;;;;;;6.88;3.35;;;9.40;99.90;;;;;;5044442;28;20051;-36
2022/09/22 04:33:30;;;;;;;4.38;3.55;;;9.40;99.90;;;;;;5043382;28;20028;-36
2022/09/22 04:35:55;;;;;;;3.85;3.35;;;9.40;99.90;;;;;;5044683;28;20029;-34
2022/09/22 04:38:21;;;;;;;5.72;3.60;;;9.40;99.90;;;;;;5043945;28;20175;-36
2022/09/22 04:40:48;;;;;;;3.72;3.25;;;9.40;99.90;;;;;;5044554;28;20037;-35
2022/09/22 04:43:14;;;;;;;4.97;3.80;;;9.40;99.90;;;;;;5043541;28;20025;-35
2022/09/22 04:45:47;;;;;;;4.82;3.70;;;9.40;99.90;;;;;;5044761;28;20043;-35
2022/09/22 04:48:14;;;;;;;5.88;3.90;;;9.40;99.90;;;;;;5043774;28;20029;-36
2022/09/22 04:50:39;;;;;;;6.35;3.70;;;9.40;99.90;;;;;;5044833;28;20107;-35
2022/09/22 04:53:05;;;;;;;4.43;3.47;;;9.30;99.90;;;;;;5044330;28;20140;-35
2022/09/22 04:55:31;;;;;;;5.55;3.90;;;9.40;99.90;;;;;;5044320;28;20060;-35
2022/09/22 04:57:56;;;;;;;6.30;3.90;;;9.30;99.90;;;;;;5044093;28;20144;-34
2022/09/22 05:00:25;;;;;;;4.35;3.78;;;9.30;99.90;;;;;;5043055;28;20407;-36
2022/09/22 05:02:54;;;;;;;6.13;4.13;;;9.30;99.90;;;;;;5044293;28;20028;-35
2022/09/22 05:05:22;;;;;;;6.80;4.60;;;9.30;99.90;;;;;;5043579;28;20041;-35
2022/09/22 05:07:53;;;;;;;7.00;5.00;;;9.30;99.90;;;;;;5043693;28;20021;-35
2022/09/22 05:10:23;;;;;;;6.75;4.82;;;9.30;99.90;;;;;;5044150;28;20036;-36
2022/09/22 05:12:48;;;;;;;6.60;4.60;;;9.30;99.90;;;;;;5044079;28;20020;-35
2022/09/22 05:15:17;;;;;;;6.65;5.10;;;9.30;99.90;;;;;;5042815;28;20021;-36
2022/09/22 05:17:51;;;;;;;5.22;4.72;;;9.30;99.90;;;;;;5044321;28;20029;-35
2022/09/22 05:20:17;;;;;;;5.45;4.70;;;9.20;99.90;;;;;;5032787;28;20033;-35
2022/09/22 05:22:43;;;;;;;5.78;5.10;;;9.20;99.90;;;;;;5043331;28;20407;-36
2022/09/22 05:25:11;;;;;;;6.20;4.68;;;9.20;99.90;;;;;;5043447;28;20481;-35
2022/09/22 05:27:47;;;;;;;6.65;4.78;;;9.20;99.90;;;;;;5044147;28;20188;-34
2022/09/22 05:30:17;;;;;;;5.65;4.82;;;9.20;99.90;;;;;;5039792;28;20021;-36
2022/09/22 05:32:44;;;;;;;6.10;4.95;;;9.20;99.90;;;;;;5044703;28;20074;-35
2022/09/22 05:35:14;;;;;;;6.63;5.15;;;9.20;99.90;;;;;;5042494;28;20552;-35
2022/09/22 05:37:43;;;;;;;6.97;5.38;;;9.20;99.90;;;;;;5043901;28;20112;-35
2022/09/22 05:40:10;;;;;;;6.43;5.25;;;9.20;99.90;;;;;;5042338;28;20017;-35
2022/09/22 05:42:44;;;;;;;6.68;5.15;;;9.20;99.90;;;;;;5041365;28;20021;-35
2022/09/22 05:45:13;;;;;;;7.88;5.50;;;9.20;99.90;;;;;;5041909;28;20397;-35
2022/09/22 05:47:39;;;;;;;6.85;5.57;;;9.20;99.90;;;;;;5042975;28;20108;-36
2022/09/22 05:50:06;;;;;;;6.10;5.50;;;9.20;99.90;;;;;;5042876;28;20115;-36
2022/09/22 05:52:31;;;;;;;7.22;5.70;;;9.20;99.90;;;;;;5043095;28;20029;-35
2022/09/22 05:54:57;;;;;;;6.43;5.60;;;9.20;99.90;;;;;;5043148;28;20021;-36
2022/09/22 05:57:26;;;;;;;7.60;6.07;;;9.20;99.90;;;;;;5042261;28;20260;-35
2022/09/22 05:59:53;;;;;;;8.65;6.03;;;9.30;99.90;;;;;;5043077;28;20060;-35
2022/09/22 06:02:18;;;;;;;7.18;5.95;;;9.30;99.90;;;;;;5045775;28;20032;-36
2022/09/22 06:04:44;;;;;;;6.80;6.10;;;9.30;99.90;;;;;;5046105;28;20420;-35
2022/09/22 06:07:10;;;;;;;8.25;6.15;;;9.30;99.90;;;;;;5045983;28;20060;-36
2022/09/22 06:09:35;;;;;;;7.18;6.20;;;9.30;99.90;;;;;;5046517;28;20032;-37
2022/09/22 06:12:01;;;;;;;7.00;6.18;;;9.30;99.90;;;;;;5046096;28;20024;-36
2022/09/22 06:14:26;;;;;;;6.75;6.00;;;9.30;99.90;;;;;;5046335;28;20334;-34
2022/09/22 06:16:52;;;;;;;7.68;6.10;;;9.40;99.90;;;;;;5046936;28;20097;-35
2022/09/22 06:19:18;;;;;;;7.40;6.65;;;9.40;99.90;;;;;;5045364;28;20052;-35
2022/09/22 06:21:44;;;;;;;6.43;5.80;;;9.40;99.90;;;;;;5045269;28;20017;-36
2022/09/22 06:24:10;;;;;;;8.55;6.28;;;9.40;99.90;;;;;;5045169;28;20045;-35
2022/09/22 06:26:36;;;;;;;9.88;6.00;;;9.40;99.90;;;;;;5046046;28;20025;-34
2022/09/22 06:29:01;;;;;;;7.32;6.63;;;9.40;99.90;;;;;;5046478;28;20322;-35
2022/09/22 06:31:27;;;;;;;7.07;6.03;;;9.40;99.90;;;;;;5045144;28;20286;-35
2022/09/22 06:33:53;;;;;;;7.43;6.50;;;9.50;99.90;;;;;;5046358;28;20021;-36
2022/09/22 06:36:29;;;;;;;8.07;6.30;;;9.50;99.90;;;;;;5045873;28;20404;-35
2022/09/22 06:38:57;;;;;;;6.90;6.20;;;9.50;99.90;;;;;;5046021;28;20031;-36
2022/09/22 06:41:24;;;;;;;8.43;7.05;;;9.60;99.90;;;;;;5046056;28;20391;-37
2022/09/22 06:43:52;;;;;;;10.88;7.82;;;9.60;99.90;;;;;;5046804;28;20040;-35
2022/09/22 06:46:19;;;;;;;8.70;7.07;;;9.70;99.90;;;;;;5045133;28;20047;-34
2022/09/22 06:48:49;;;;;;;7.82;7.00;;;9.70;99.90;;;;;;5045870;28;20461;-35
2022/09/22 06:51:16;;;;;;;7.72;5.78;;;9.80;99.90;;;;;;5046538;28;20027;-37
2022/09/22 06:53:43;;;;;;;7.60;6.32;;;9.80;99.90;;;;;;5046380;28;20087;-35
2022/09/22 06:56:08;;;;;;;7.30;6.60;;;9.90;99.90;;;;;;5045721;28;20021;-34
2022/09/22 06:58:34;;;;;;;7.30;5.97;;;9.90;99.90;;;;;;5046784;28;20033;-34
2022/09/22 07:01:05;;;;;;;7.05;5.57;;;10.00;99.90;;;;;;5045501;28;20024;-34
2022/09/22 07:03:32;;;;;;;7.50;6.38;;;10.00;99.90;;;;;;5046005;28;20025;-35
2022/09/22 07:06:00;;;;;;;6.85;6.05;;;10.10;99.90;;;;;;5046131;28;20506;-35
2022/09/22 07:08:27;;;;;;;7.63;6.32;;;10.20;99.90;;;;;;5041469;28;20171;-35
2022/09/22 07:10:55;;;;;;;8.35;6.30;;;10.20;99.90;;;;;;5047203;28;20033;-35
2022/09/22 07:13:26;;;;;;;9.25;6.28;;;10.30;99.90;;;;;;5044176;28;20073;-34
2022/09/22 07:15:54;;;;;;;9.15;6.20;;;10.30;99.90;;;;;;5046675;28;20536;-34
2022/09/22 07:18:19;;;;;;;8.73;6.78;;;10.40;99.90;;;;;;5045451;28;20029;-35
2022/09/22 07:20:45;;;;;;;8.48;6.60;;;10.40;99.90;;;;;;5045485;28;20043;-35
2022/09/22 07:23:19;;;;;;;7.25;6.22;;;10.50;99.90;;;;;;5044919;28;20100;-35
2022/09/22 07:25:59;;;;;;;6.78;6.07;;;10.50;99.90;;;;;;5026462;28;20057;-36
2022/09/22 07:28:27;;;;;;;7.43;6.57;;;10.60;99.90;;;;;;5040511;28;20027;-36
2022/09/22 07:30:56;;;;;;;8.10;6.70;;;10.60;99.90;;;;;;5046540;28;20039;-35
2022/09/22 07:33:22;;;;;;;8.18;6.20;;;10.60;99.90;;;;;;5044930;28;20427;-35
2022/09/22 07:35:57;;;;;;;7.50;6.70;;;10.70;99.90;;;;;;5044726;28;20033;-37
2022/09/22 07:38:28;;;;;;;7.10;6.35;;;10.70;99.90;;;;;;5044521;28;20376;-36
2022/09/22 07:40:54;;;;;;;10.60;6.85;;;10.80;99.90;;;;;;5045835;28;20029;-35
2022/09/22 07:43:20;;;;;;;8.23;6.65;;;10.80;99.90;;;;;;5044191;28;20028;-36
2022/09/22 07:45:58;;;;;;;7.95;6.40;;;10.90;99.90;;;;;;5045764;28;20131;-35
2022/09/22 07:48:35;;;;;;;8.32;7.15;;;10.90;99.90;;;;;;5044580;28;20016;-36
2022/09/22 07:51:01;;;;;;;7.22;5.97;;;10.90;99.90;;;;;;5045534;28;20028;-35
2022/09/22 07:53:26;;;;;;;7.07;6.00;;;11.00;99.90;;;;;;5044572;28;20054;-35
2022/09/22 07:55:55;;;;;;;7.18;6.28;;;11.00;99.90;;;;;;5044577;28;20152;-36
2022/09/22 07:58:21;;;;;;;7.38;5.72;;;11.10;99.90;;;;;;5045067;28;20028;-35
2022/09/22 08:00:46;;;;;;;6.50;5.80;;;11.10;99.90;;;;;;5045557;28;20033;-35
2022/09/22 08:03:12;;;;;;;8.80;6.68;;;11.20;99.90;;;;;;5043088;28;20032;-36
2022/09/22 08:05:39;;;;;;;7.60;6.40;;;11.20;99.90;;;;;;5045153;28;20051;-35
2022/09/22 08:08:06;;;;;;;7.15;5.95;;;11.30;99.90;;;;;;5045122;28;20024;-36
2022/09/22 08:10:34;;;;;;;9.07;6.30;;;11.30;99.90;;;;;;5040790;28;20033;-35
2022/09/22 08:13:03;;;;;;;7.05;5.50;;;11.30;99.90;;;;;;5045202;28;20079;-36
2022/09/22 08:15:29;;;;;;;7.68;5.68;;;11.40;99.90;;;;;;5044055;28;20361;-35
2022/09/22 08:17:56;;;;;;;6.75;5.55;;;11.50;99.90;;;;;;5044923;28;20075;-34
2022/09/22 08:20:24;;;;;;;8.07;5.97;;;11.50;99.90;;;;;;5044213;28;20102;-35
2022/09/22 08:23:00;;;;;;;7.97;6.07;;;11.60;99.90;;;;;;5044021;28;20029;-36
2022/09/22 08:25:25;;;;;;;7.43;5.90;;;11.60;99.90;;;;;;5041485;28;20425;-35
2022/09/22 08:27:51;;;;;;;7.80;5.75;;;11.70;99.90;;;;;;5043134;28;20039;-35
2022/09/22 08:30:18;;;;;;;7.63;6.03;;;11.80;99.90;;;;;;5041199;28;20075;-35
2022/09/22 08:32:44;;;;;;;7.97;5.65;;;11.80;99.90;;;;;;5042384;28;20488;-35
2022/09/22 08:35:10;;;;;;;9.90;6.05;;;11.90;99.90;;;;;;5043213;28;20033;-35
2022/09/22 08:37:36;;;;;;;10.90;5.65;;;12.00;99.90;;;;;;5045152;28;20036;-35
2022/09/22 08:40:06;;;;;;;7.72;5.55;;;12.00;99.90;;;;;;5044111;28;20820;-35
2022/09/22 08:42:32;;;;;;;7.25;5.63;;;12.10;99.90;;;;;;5044496;28;20033;-36
2022/09/22 08:45:35;;;;;;;5.88;5.05;;;12.20;99.90;;;;;;5044200;28;20183;-35
2022/09/22 08:54:00;;;;;;;7.28;5.20;;;12.40;99.90;;;;;;5024208;28;20148;-36
2022/09/22 08:56:39;;;;;;;6.25;5.00;;;12.50;99.90;;;;;;5040874;28;20104;-36
2022/09/22 08:59:46;;;;;;;5.40;4.90;;;12.60;99.90;;;;;;5024053;28;20049;-35
2022/09/22 09:02:41;;;;;;;7.55;4.70;;;12.60;99.90;;;;;;5042600;28;20477;-36
2022/09/22 09:05:26;;;;;;;4.88;3.90;;;12.70;99.90;;;;;;5044427;28;20075;-34
2022/09/22 09:08:40;;;;;;;6.97;4.32;;;12.70;99.90;;;;;;5032805;28;20025;-34
2022/09/22 09:11:19;;;;;;;4.72;3.50;;;12.80;99.90;;;;;;5020880;28;20505;-34
2022/09/22 09:14:08;;;;;;;7.32;3.80;;;12.90;99.90;;;;;;5021276;28;20344;-36
2022/09/22 09:16:49;;;;;;;4.55;3.90;;;13.00;99.90;;;;;;5039680;28;20047;-34
2022/09/22 09:19:27;;;;;;;5.57;4.40;;;13.00;99.90;;;;;;5044184;28;20059;-35
2022/09/22 09:21:57;;;;;;;6.22;3.92;;;13.10;99.90;;;;;;5043916;28;20045;-35
2022/09/22 09:24:36;;;;;;;4.30;3.88;;;13.20;99.90;;;;;;5043977;28;20645;-35
2022/09/22 09:27:08;;;;;;;6.85;4.22;;;13.20;99.90;;;;;;5044466;28;20021;-37
2022/09/22 09:29:59;;;;;;;4.97;3.65;;;13.30;99.90;;;;;;5044449;28;20017;-36
2022/09/22 09:32:36;;;;;;;5.22;3.80;;;13.30;99.90;;;;;;5043644;28;20544;-36
2022/09/22 09:35:03;;;;;;;3.50;3.15;;;13.40;99.90;;;;;;5043722;28;20025;-34
2022/09/22 09:37:33;;;;;;;4.82;3.72;;;13.50;99.90;;;;;;5046799;28;20036;-35
2022/09/22 09:40:01;;;;;;;6.60;4.40;;;13.60;99.90;;;;;;5047835;28;20056;-38
2022/09/22 09:42:35;;;;;;;5.53;4.28;;;13.70;99.90;;;;;;5046554;28;20794;-36
2022/09/22 09:45:01;;;;;;;6.05;3.70;;;13.70;99.90;;;;;;5048315;28;20388;-35
2022/09/22 09:47:39;;;;;;;5.43;3.58;;;13.80;99.90;;;;;;5048056;28;20116;-35
2022/09/22 09:50:05;;;;;;;4.35;3.30;;;13.80;99.90;;;;;;5047864;28;20044;-35
2022/09/22 09:52:37;;;;;;;4.32;2.90;;;13.90;99.90;;;;;;5047119;28;20025;-34
2022/09/22 09:55:15;;;;;;;3.80;3.00;;;14.00;99.90;;;;;;5048363;28;20029;-36
2022/09/22 09:58:09;;;;;;;4.07;2.70;;;14.00;99.90;;;;;;5047947;28;20029;-35
2022/09/22 10:00:55;;;;;;;4.82;3.22;;;14.10;99.90;;;;;;5047929;28;20060;-35
2022/09/22 10:03:31;;;;;;;5.57;2.47;;;14.20;99.90;;;;;;5045882;28;20120;-36
2022/09/22 10:06:06;;;;;;;4.43;2.60;;;14.30;99.90;;;;;;5048068;28;20040;-35
2022/09/22 10:08:42;;;;;;;3.55;2.10;;;14.40;99.90;;;;;;5047222;28;20504;-35
2022/09/22 10:11:08;;;;;;;5.18;2.67;;;14.40;99.90;;;;;;5046246;28;20063;-35
2022/09/22 10:13:36;;;;;;;4.82;2.60;;;14.50;99.90;;;;;;5048106;28;20029;-35
2022/09/22 10:16:22;;;;;;;3.40;2.28;;;14.60;99.90;;;;;;5047721;28;20358;-35
2022/09/22 10:18:50;;;;;;;4.18;2.13;;;14.70;99.90;;;;;;5047868;28;20119;-35
2022/09/22 10:21:21;;;;;;;4.18;2.30;;;14.70;99.90;;;;;;5047276;28;20184;-37
2022/09/22 10:23:52;;;;;;;3.42;2.35;;;14.80;99.90;;;;;;5046655;28;20047;-36
2022/09/22 10:26:21;;;;;;;4.65;2.60;;;14.80;99.90;;;;;;5046570;28;20699;-36
2022/09/22 10:29:08;;;;;;;3.25;2.20;;;14.90;99.90;;;;;;5046662;28;20040;-36
2022/09/22 10:31:37;;;;;;;5.00;2.53;;;15.00;99.90;;;;;;5046646;28;20388;-35
2022/09/22 10:34:03;;;;;;;4.13;2.50;;;15.00;99.90;;;;;;5046812;28;20111;-35
2022/09/22 10:36:29;;;;;;;4.28;2.53;;;15.20;99.90;;;;;;5046571;28;20492;-35
2022/09/22 10:38:55;;;;;;;4.25;2.70;;;15.30;99.90;;;;;;5046318;28;20045;-36
2022/09/22 10:41:26;;;;;;;3.50;2.80;;;15.40;99.90;;;;;;5046630;28;20068;-37
2022/09/22 10:44:27;;;;;;;4.57;2.40;;;15.50;99.90;;;;;;5046803;28;20032;-36
2022/09/22 10:47:15;;;;;;;3.15;2.08;;;15.60;99.90;;;;;;5024167;28;20277;-35
2022/09/22 10:49:59;;;;;;;3.50;2.38;;;15.60;99.90;;;;;;5045226;28;20457;-37
2022/09/22 10:53:01;;;;;;;3.67;2.30;;;15.70;99.90;;;;;;5044772;28;20491;-37
2022/09/22 10:55:30;;;;;;;7.53;3.53;;;15.80;99.90;;;;;;5046438;28;20173;-35
2022/09/22 10:58:07;;;;;;;6.22;3.20;;;15.80;99.90;;;;;;5046981;28;20430;-35
2022/09/22 11:00:41;;;;;;;5.20;3.38;;;15.80;99.90;;;;;;5045384;28;20139;-34
2022/09/22 11:03:49;;;;;;;7.30;3.40;;;15.90;99.90;;;;;;5026313;28;20029;-34
2022/09/22 11:12:20;;;;;;;4.35;2.55;;;16.00;99.90;;;;;;5037412;28;20091;-36
2022/09/22 11:15:05;;;;;;;4.38;2.15;;;16.00;99.90;;;;;;5045755;28;20302;-36
2022/09/22 11:17:59;;;;;;;3.15;1.90;;;16.10;99.90;;;;;;5046125;28;20574;-35
2022/09/22 11:20:31;;;;;;;2.17;1.60;;;16.10;99.90;;;;;;5044823;28;20464;-36
2022/09/22 11:23:20;;;;;;;3.75;1.95;;;16.00;99.90;;;;;;5046440;28;20352;-36
2022/09/22 11:26:19;;;;;;;4.72;1.90;;;16.00;99.90;;;;;;5035377;28;20091;-35
2022/09/22 11:29:05;;;;;;;1.73;1.63;;;16.00;99.90;;;;;;5045561;28;20051;-35
2022/09/22 11:31:38;;;;;;;1.98;1.15;;;16.10;99.90;;;;;;5045781;28;20029;-35
2022/09/22 11:34:29;;;;;;;1.98;1.40;;;16.10;99.90;;;;;;5025564;28;20028;-35
2022/09/22 11:36:54;;;;;;;3.25;1.40;;;16.20;99.80;;;;;;5043871;28;20476;-36
2022/09/22 11:39:57;;;;;;;3.13;1.40;;;16.30;99.40;;;;;;5046127;28;20085;-35
2022/09/22 11:42:50;;;;;;;2.23;1.20;;;16.40;99.10;;;;;;5035914;28;20087;-36
2022/09/22 11:45:40;;;;;;;3.17;1.23;;;16.50;98.70;;;;;;5045159;28;20334;-35
2022/09/22 11:48:21;;;;;;;1.35;1.08;;;16.60;98.50;;;;;;5044145;28;20029;-36
2022/09/22 11:50:55;;;;;;;1.73;0.80;;;16.70;98.20;;;;;;5045668;28;20033;-36
2022/09/22 11:53:35;;;;;;;2.95;1.35;;;16.70;98.20;;;;;;5044997;28;20032;-35
2022/09/22 11:56:22;;;;;;;1.58;1.35;;;16.70;98.10;;;;;;5045505;28;20353;-36
2022/09/22 11:58:51;;;;;;;2.50;1.40;;;16.80;97.70;;;;;;5036620;28;20040;-36
2022/09/22 12:01:21;;;;;;;2.70;1.40;;;16.90;97.30;;;;;;5044939;28;20047;-36
2022/09/22 12:04:25;;;;;;;2.55;1.33;;;17.00;97.00;;;;;;5034393;28;20456;-36
2022/09/22 12:06:55;;;;;;;2.80;1.33;;;17.10;96.90;;;;;;5022671;28;20140;-35
2022/09/22 12:09:30;;;;;;;1.27;1.17;;;17.10;97.00;;;;;;5040108;28;20033;-36
2022/09/22 12:11:57;;;;;;;1.65;1.10;;;17.20;97.00;;;;;;5044938;28;20056;-35
2022/09/22 12:14:24;;;;;;;2.25;1.00;;;17.20;96.90;;;;;;5044864;28;20057;-35
2022/09/22 12:16:59;;;;;;;1.80;1.20;;;17.20;96.80;;;;;;5044492;28;20032;-35
2022/09/22 12:19:42;;;;;;;1.73;1.30;;;17.30;96.60;;;;;;5044299;28;20021;-35
2022/09/22 12:22:18;;;;;;;2.50;1.33;;;17.40;96.50;;;;;;5044620;28;20029;-35
2022/09/22 12:24:48;;;;;;;1.63;1.25;;;17.40;96.30;;;;;;5044576;28;20059;-36
2022/09/22 12:27:23;;;;;;;2.15;1.20;;;17.50;96.20;;;;;;5044576;28;20451;-35
2022/09/22 12:30:00;;;;;;;2.95;1.45;;;17.50;96.10;;;;;;5045288;28;20060;-35
2022/09/22 12:32:35;;;;;;;1.50;1.40;;;17.40;96.00;;;;;;5044594;28;20032;-35
2022/09/22 12:35:04;;;;;;;5.40;2.10;;;17.40;95.90;;;;;;5045013;28;20455;-37
2022/09/22 12:37:36;;;;;;;2.13;1.52;;;17.50;95.20;;;;;;5043697;28;20017;-35
2022/09/22 12:40:31;;;;;;;1.58;1.48;;;17.60;95.00;;;;;;5045579;28;20048;-37
2022/09/22 12:42:58;;;;;;;1.20;1.10;;;17.60;94.50;;;;;;5043790;28;20036;-36
2022/09/22 12:45:39;;;;;;;2.33;1.55;;;17.70;94.50;;;;;;5043476;28;20076;-35
2022/09/22 12:48:18;;;;;;;3.50;1.80;;;17.80;94.50;;;;;;5044506;28;20563;-36
2022/09/22 12:50:44;;;;;;;2.63;1.40;;;17.90;94.30;;;;;;5045036;28;20037;-37
2022/09/22 12:53:30;;;;;;;3.33;1.92;;;17.90;94.30;;;;;;5043031;28;20017;-35
2022/09/22 12:55:56;;;;;;;1.80;1.40;;;17.80;94.00;;;;;;5043917;28;20029;-35
2022/09/22 12:58:25;;;;;;;1.77;1.30;;;17.80;94.20;;;;;;5043566;28;20498;-36
2022/09/22 13:00:51;;;;;;;1.80;1.48;;;17.80;94.30;;;;;;5044588;28;20051;-34
2022/09/22 13:03:26;;;;;;;2.25;1.50;;;17.80;94.30;;;;;;5043695;28;20125;-36
2022/09/22 13:05:55;;;;;;;1.75;1.65;;;17.80;94.10;;;;;;5033441;28;20037;-36
2022/09/22 13:08:22;;;;;;;2.60;1.70;;;17.80;94.00;;;;;;5043810;28;20025;-35
2022/09/22 13:10:57;;;;;;;2.80;2.00;;;17.80;94.00;;;;;;5045151;28;20059;-36
2022/09/22 13:13:34;;;;;;;1.98;1.50;;;17.90;93.60;;;;;;5047836;28;20467;-36
2022/09/22 13:16:13;;;;;;;2.83;2.10;;;17.90;93.70;;;;;;5049311;28;20178;-35
2022/09/22 13:18:44;;;;;;;1.40;1.30;;;17.90;93.60;;;;;;5048292;28;20059;-35
2022/09/22 13:21:12;;;;;;;3.38;1.98;;;18.00;93.50;;;;;;5047681;28;20128;-36
2022/09/22 13:23:50;;;;;;;5.78;1.70;;;18.10;93.40;;;;;;5048974;28;20432;-36
2022/09/22 13:26:22;;;;;;;2.30;1.73;;;18.20;93.30;;;;;;5047606;28;20120;-38
2022/09/22 13:29:09;;;;;;;1.92;1.45;;;18.20;93.10;;;;;;5048736;28;20031;-35
2022/09/22 13:31:43;;;;;;;1.60;1.50;;;18.30;93.00;;;;;;5047989;28;20025;-37